Time;durP1;ratioP1;P1;durP2;ratioP2;P2;SDS_P1;SDS_P2;PMS_P1;PMS_P2;Temp;Humidity;BMP_temperature;BMP_pressure;BME280_temperature;BME280_humidity;BME280_pressure;Samples;Min_cycle;Max_cycle;Signal;HPM_P1;HPM_P2
2021/03/22 00:00:23;;;;;;;29.30;7.28;;;3.20;99.90;;;;;;5013974;28;20018;-72
2021/03/22 00:02:49;;;;;;;23.05;6.47;;;3.00;99.90;;;;;;5007133;28;20049;-74
2021/03/22 00:05:15;;;;;;;22.17;6.15;;;3.00;99.90;;;;;;5006936;28;20048;-74
2021/03/22 00:07:41;;;;;;;19.90;5.43;;;3.00;99.90;;;;;;5006951;28;20021;-74
2021/03/22 00:10:08;;;;;;;19.65;5.95;;;2.90;99.90;;;;;;5019422;28;20109;-74
2021/03/22 00:12:33;;;;;;;20.10;5.97;;;2.80;99.90;;;;;;4998265;28;20096;-73
2021/03/22 00:14:59;;;;;;;20.55;7.13;;;2.80;99.90;;;;;;5009258;28;20619;-74
2021/03/22 00:17:25;;;;;;;30.80;6.97;;;2.70;99.90;;;;;;5012111;28;20029;-74
2021/03/22 00:19:50;;;;;;;23.35;6.55;;;2.60;99.90;;;;;;5022672;28;20078;-74
2021/03/22 00:22:16;;;;;;;24.13;6.35;;;2.60;99.90;;;;;;5011436;28;20034;-73
2021/03/22 00:24:41;;;;;;;26.70;6.45;;;2.60;99.90;;;;;;5006755;28;20129;-73
2021/03/22 00:27:07;;;;;;;20.80;5.97;;;2.60;99.90;;;;;;5003935;28;20495;-74
2021/03/22 00:29:33;;;;;;;19.25;6.28;;;2.60;99.90;;;;;;5028439;28;20508;-74
2021/03/22 00:31:58;;;;;;;19.23;6.03;;;2.60;99.90;;;;;;5014484;28;20166;-73
2021/03/22 00:34:24;;;;;;;20.90;5.60;;;2.80;99.90;;;;;;5011786;28;20100;-73
2021/03/22 00:36:49;;;;;;;18.75;5.72;;;2.60;99.90;;;;;;5013542;28;20022;-72
2021/03/22 00:39:15;;;;;;;23.25;5.95;;;2.50;99.90;;;;;;5009731;28;20081;-74
2021/03/22 00:41:41;;;;;;;19.35;5.35;;;2.50;99.90;;;;;;4998486;28;20088;-74
2021/03/22 00:44:06;;;;;;;17.45;5.57;;;2.50;99.90;;;;;;5025234;28;20029;-74
2021/03/22 00:46:32;;;;;;;18.75;5.80;;;2.40;99.90;;;;;;5018848;28;20149;-74
2021/03/22 00:48:58;;;;;;;22.92;6.22;;;2.30;99.90;;;;;;5012371;28;20500;-74
2021/03/22 00:51:23;;;;;;;25.30;6.18;;;2.30;99.90;;;;;;5014125;28;20104;-74
2021/03/22 00:53:49;;;;;;;20.00;5.75;;;2.20;99.90;;;;;;5014324;28;20037;-74
2021/03/22 00:56:14;;;;;;;29.67;6.75;;;2.20;99.90;;;;;;5014375;28;20072;-74
2021/03/22 00:58:41;;;;;;;24.70;5.88;;;2.20;99.90;;;;;;5025708;28;20096;-73
2021/03/22 01:01:07;;;;;;;22.55;5.72;;;2.20;99.90;;;;;;5014378;28;20392;-74
2021/03/22 01:03:34;;;;;;;20.50;6.40;;;2.20;99.90;;;;;;5015772;28;20030;-74
2021/03/22 01:06:01;;;;;;;22.05;5.70;;;2.20;99.90;;;;;;5013050;28;20033;-74
2021/03/22 01:08:30;;;;;;;20.13;5.50;;;2.30;99.90;;;;;;5013643;28;20026;-74
2021/03/22 01:11:09;;;;;;;19.50;6.13;;;2.30;99.90;;;;;;4998463;28;20017;-75
2021/03/22 01:13:45;;;;;;;22.67;6.35;;;2.50;99.90;;;;;;5013167;28;20496;-74
2021/03/22 01:16:11;;;;;;;23.50;6.38;;;2.30;99.90;;;;;;5007890;28;20093;-74
2021/03/22 01:18:41;;;;;;;18.52;6.05;;;2.20;99.90;;;;;;5013063;28;20022;-74
2021/03/22 01:21:12;;;;;;;17.25;5.43;;;2.20;99.90;;;;;;5009963;28;20022;-74
2021/03/22 01:23:38;;;;;;;24.13;7.03;;;2.20;99.90;;;;;;5004682;28;20053;-75
2021/03/22 01:26:09;;;;;;;18.02;5.82;;;2.20;99.90;;;;;;5009748;28;20056;-74
2021/03/22 01:28:37;;;;;;;24.20;6.22;;;2.00;99.90;;;;;;5016068;28;20026;-74
2021/03/22 01:31:03;;;;;;;20.48;6.38;;;2.00;99.90;;;;;;5009948;28;20022;-74
2021/03/22 01:33:35;;;;;;;22.73;6.03;;;2.00;99.90;;;;;;5015804;28;20395;-73
2021/03/22 01:36:13;;;;;;;20.58;6.13;;;2.00;99.90;;;;;;5017131;28;20014;-74
2021/03/22 01:38:40;;;;;;;23.70;6.28;;;2.10;99.90;;;;;;5010334;28;20088;-74
2021/03/22 01:41:17;;;;;;;22.92;6.80;;;2.00;99.90;;;;;;5005945;28;20057;-75
2021/03/22 01:44:12;;;;;;;23.65;7.35;;;2.10;99.90;;;;;;5016167;28;20109;-74
2021/03/22 01:46:41;;;;;;;23.20;6.40;;;2.10;99.90;;;;;;4998210;28;20026;-75
2021/03/22 01:49:07;;;;;;;20.83;6.60;;;2.10;99.90;;;;;;5008191;28;20500;-74
2021/03/22 01:51:34;;;;;;;22.85;6.63;;;2.10;99.90;;;;;;5016300;28;20022;-74
2021/03/22 01:54:00;;;;;;;21.98;6.03;;;2.10;99.90;;;;;;5005479;28;20033;-75
2021/03/22 01:56:26;;;;;;;20.58;6.18;;;2.10;99.90;;;;;;5018224;28;20021;-73
2021/03/22 01:58:52;;;;;;;25.30;6.40;;;2.10;99.90;;;;;;5012989;28;20025;-73
2021/03/22 02:01:19;;;;;;;22.17;5.95;;;2.00;99.90;;;;;;5010426;28;20026;-72
2021/03/22 02:03:45;;;;;;;20.90;6.70;;;2.00;99.90;;;;;;5012937;28;20026;-73
2021/03/22 02:06:10;;;;;;;18.27;6.05;;;2.00;99.90;;;;;;5012881;28;20030;-73
2021/03/22 02:08:39;;;;;;;19.05;5.80;;;1.90;99.90;;;;;;5005886;28;20030;-73
2021/03/22 02:11:06;;;;;;;21.95;6.45;;;2.00;99.90;;;;;;5006398;28;20108;-74
2021/03/22 02:13:36;;;;;;;22.58;7.00;;;2.10;99.90;;;;;;5019592;28;20057;-74
2021/03/22 02:16:19;;;;;;;24.58;6.82;;;2.10;99.90;;;;;;5018379;28;20357;-75
2021/03/22 02:19:04;;;;;;;21.10;6.32;;;2.10;99.90;;;;;;5021942;28;20029;-74
2021/03/22 02:21:45;;;;;;;22.48;6.28;;;1.60;99.90;;;;;;5017888;28;20025;-73
2021/03/22 02:24:20;;;;;;;21.65;7.63;;;1.60;99.90;;;;;;5030321;28;20030;-72
2021/03/22 02:27:08;;;;;;;21.63;6.05;;;1.60;99.90;;;;;;5011354;28;20025;-72
2021/03/22 02:29:57;;;;;;;18.33;5.57;;;1.70;99.90;;;;;;5030761;28;20030;-73
2021/03/22 02:32:41;;;;;;;18.95;6.55;;;1.80;99.90;;;;;;5029158;28;20113;-74
2021/03/22 02:35:07;;;;;;;18.08;6.38;;;1.80;99.90;;;;;;5012358;28;20057;-74
2021/03/22 02:37:51;;;;;;;22.58;6.80;;;1.90;99.90;;;;;;5012305;28;20049;-75
2021/03/22 02:40:32;;;;;;;25.33;6.38;;;1.90;99.90;;;;;;5026699;28;20029;-73
2021/03/22 02:42:59;;;;;;;16.92;6.13;;;2.00;99.90;;;;;;5022017;28;20052;-72
2021/03/22 02:45:31;;;;;;;20.75;6.40;;;2.10;99.90;;;;;;5028956;28;20029;-74
2021/03/22 02:47:58;;;;;;;18.77;6.65;;;2.10;99.90;;;;;;5030600;28;20022;-73
2021/03/22 02:50:28;;;;;;;18.75;6.10;;;2.10;99.90;;;;;;5031806;28;20504;-74
2021/03/22 02:53:08;;;;;;;21.58;7.22;;;2.10;99.90;;;;;;5030481;28;20026;-74
2021/03/22 02:55:53;;;;;;;18.45;6.28;;;2.10;99.90;;;;;;5018773;28;20018;-73
2021/03/22 02:58:22;;;;;;;21.23;6.07;;;2.10;99.90;;;;;;5031652;28;20072;-74
2021/03/22 03:00:57;;;;;;;19.85;5.95;;;2.10;99.90;;;;;;5030338;28;20068;-73
2021/03/22 03:03:26;;;;;;;23.13;6.38;;;2.10;99.90;;;;;;5014753;28;20018;-74
2021/03/22 03:05:53;;;;;;;19.50;5.70;;;2.00;99.90;;;;;;5022829;28;20491;-75
2021/03/22 03:08:29;;;;;;;19.67;5.72;;;2.00;99.90;;;;;;5009597;28;20037;-75
2021/03/22 03:10:55;;;;;;;;;;;2.10;99.90;;;;;;5004807;28;20037;-74
2021/03/22 03:13:20;;;;;;;22.30;6.30;;;2.20;99.90;;;;;;5029352;28;20012;-75
2021/03/22 03:15:46;;;;;;;19.63;5.35;;;2.30;99.90;;;;;;5018538;28;20038;-76
2021/03/22 03:18:11;;;;;;;18.00;5.80;;;2.10;99.90;;;;;;5018654;28;20487;-76
2021/03/22 03:20:37;;;;;;;17.08;7.38;;;2.20;99.90;;;;;;5019719;28;20037;-75
2021/03/22 03:23:03;;;;;;;23.90;5.75;;;2.10;99.90;;;;;;5030570;28;20025;-74
2021/03/22 03:25:29;;;;;;;19.13;6.10;;;2.10;99.90;;;;;;5029176;28;20116;-73
2021/03/22 03:27:56;;;;;;;20.80;5.70;;;2.10;99.90;;;;;;5038009;28;20032;-73
2021/03/22 03:30:30;;;;;;;16.95;5.32;;;2.10;99.90;;;;;;5037967;28;20025;-73
2021/03/22 03:32:56;;;;;;;18.10;5.95;;;2.10;99.90;;;;;;5038091;28;20045;-74
2021/03/22 03:35:27;;;;;;;23.92;6.00;;;2.10;99.90;;;;;;5023681;28;20060;-74
2021/03/22 03:37:53;;;;;;;22.90;5.70;;;2.10;99.90;;;;;;5018307;28;20025;-74
2021/03/22 03:40:41;;;;;;;20.15;5.93;;;2.10;99.90;;;;;;5016794;28;20028;-73
2021/03/22 03:43:06;;;;;;;19.88;5.47;;;2.10;99.90;;;;;;5008508;28;20380;-74
2021/03/22 03:45:36;;;;;;;20.85;5.90;;;2.00;99.90;;;;;;5010443;28;20022;-74
2021/03/22 03:48:02;;;;;;;24.48;5.75;;;2.10;99.90;;;;;;5008759;28;20022;-75
2021/03/22 03:50:29;;;;;;;19.38;5.65;;;1.90;99.90;;;;;;5021635;28;20108;-74
2021/03/22 03:52:55;;;;;;;21.95;6.38;;;1.60;99.90;;;;;;5027507;28;20033;-74
2021/03/22 03:55:23;;;;;;;17.25;6.10;;;1.40;99.90;;;;;;5035316;28;20029;-73
2021/03/22 03:57:50;;;;;;;23.00;6.25;;;1.40;99.90;;;;;;5036769;28;20045;-73
2021/03/22 04:00:30;;;;;;;21.73;6.05;;;1.40;99.90;;;;;;5016542;28;20030;-72
2021/03/22 04:02:56;;;;;;;18.67;6.68;;;1.50;99.90;;;;;;5009373;28;20515;-72
2021/03/22 04:05:23;;;;;;;21.90;6.15;;;1.50;99.90;;;;;;5017993;28;20506;-73
2021/03/22 04:07:49;;;;;;;21.70;7.28;;;1.50;99.90;;;;;;5017928;28;20042;-72
2021/03/22 04:10:15;;;;;;;17.63;6.50;;;1.40;99.90;;;;;;5017669;28;20103;-72
2021/03/22 04:12:41;;;;;;;16.40;6.22;;;1.40;99.90;;;;;;5017797;28;20696;-73
2021/03/22 04:15:14;;;;;;;20.00;6.22;;;1.30;99.90;;;;;;5023880;28;20026;-74
2021/03/22 04:17:40;;;;;;;21.48;6.45;;;1.30;99.90;;;;;;5018188;28;20090;-74
2021/03/22 04:20:07;;;;;;;21.00;6.78;;;1.30;99.90;;;;;;5017893;28;20025;-72
2021/03/22 04:22:32;;;;;;;18.08;6.32;;;1.30;99.90;;;;;;5018797;28;20030;-72
2021/03/22 04:24:58;;;;;;;16.85;5.93;;;1.30;99.90;;;;;;5026216;28;20032;-72
2021/03/22 04:27:23;;;;;;;17.70;6.05;;;1.30;99.90;;;;;;5013460;28;20022;-72
2021/03/22 04:29:49;;;;;;;17.25;6.07;;;1.10;99.90;;;;;;5014697;28;20030;-72
2021/03/22 04:32:15;;;;;;;21.23;6.28;;;1.10;99.90;;;;;;5014197;28;20532;-74
2021/03/22 04:34:40;;;;;;;20.05;6.10;;;1.10;99.90;;;;;;5005541;28;20030;-71
2021/03/22 04:37:06;;;;;;;21.80;6.55;;;1.10;99.90;;;;;;5009454;28;20026;-72
2021/03/22 04:39:33;;;;;;;21.40;5.43;;;1.20;99.90;;;;;;5021301;28;20036;-72
2021/03/22 04:41:59;;;;;;;19.13;6.53;;;1.10;99.90;;;;;;5018163;28;20057;-72
2021/03/22 04:44:24;;;;;;;22.77;6.53;;;1.10;99.90;;;;;;5013214;28;20056;-72
2021/03/22 04:46:50;;;;;;;26.38;5.90;;;1.00;99.90;;;;;;5014312;28;20034;-74
2021/03/22 04:49:16;;;;;;;21.17;6.45;;;1.00;99.90;;;;;;5006245;28;20053;-76
2021/03/22 04:51:41;;;;;;;18.23;5.05;;;0.90;99.90;;;;;;5009431;28;20037;-76
2021/03/22 04:54:08;;;;;;;15.40;5.50;;;0.80;99.90;;;;;;5026083;28;20083;-76
2021/03/22 04:56:34;;;;;;;20.38;6.40;;;0.90;99.90;;;;;;5012961;28;20022;-76
2021/03/22 04:58:59;;;;;;;20.58;6.65;;;0.80;99.90;;;;;;5006090;28;20027;-76
2021/03/22 05:01:25;;;;;;;19.92;5.53;;;0.90;99.90;;;;;;5022308;28;20029;-74
2021/03/22 05:03:51;;;;;;;17.73;5.63;;;0.90;99.90;;;;;;5020729;28;20495;-74
2021/03/22 05:06:16;;;;;;;21.33;5.72;;;0.90;99.90;;;;;;5019207;28;20034;-74
2021/03/22 05:08:42;;;;;;;25.08;7.32;;;0.80;99.90;;;;;;5025989;28;20102;-74
2021/03/22 05:11:08;;;;;;;23.80;6.22;;;0.80;99.90;;;;;;5027015;28;20025;-73
2021/03/22 05:13:34;;;;;;;21.95;6.25;;;0.80;99.90;;;;;;5020434;28;20043;-73
2021/03/22 05:16:00;;;;;;;21.95;6.40;;;0.80;99.90;;;;;;5019406;28;20519;-75
2021/03/22 05:18:27;;;;;;;21.30;5.28;;;0.70;99.90;;;;;;5021410;28;20104;-75
2021/03/22 05:20:56;;;;;;;20.65;5.90;;;0.60;99.90;;;;;;5017713;28;20423;-75
2021/03/22 05:23:24;;;;;;;22.17;5.97;;;0.60;99.90;;;;;;5001099;28;20476;-72
2021/03/22 05:25:51;;;;;;;19.75;5.57;;;0.60;99.90;;;;;;5027073;28;20063;-72
2021/03/22 05:28:18;;;;;;;18.58;6.00;;;0.60;99.90;;;;;;5022425;28;20448;-72
2021/03/22 05:30:44;;;;;;;17.75;5.57;;;0.60;99.90;;;;;;5033936;28;20029;-72
2021/03/22 05:33:13;;;;;;;18.48;6.43;;;0.60;99.90;;;;;;5033299;28;20025;-69
2021/03/22 05:35:40;;;;;;;21.40;5.93;;;0.60;99.90;;;;;;5032900;28;20021;-69
2021/03/22 05:38:06;;;;;;;23.77;6.25;;;0.60;99.90;;;;;;5033156;28;20028;-70
2021/03/22 05:40:43;;;;;;;24.15;6.28;;;0.50;99.90;;;;;;5017155;28;20026;-70
2021/03/22 05:43:41;;;;;;;26.40;7.40;;;0.60;99.90;;;;;;5023779;28;20029;-72
2021/03/22 05:46:23;;;;;;;22.85;6.05;;;0.50;99.90;;;;;;5025039;28;20022;-72
2021/03/22 05:49:00;;;;;;;19.92;6.25;;;0.50;99.90;;;;;;5026393;28;20488;-73
2021/03/22 05:51:43;;;;;;;15.95;6.03;;;0.60;99.90;;;;;;5001118;28;20034;-72
2021/03/22 05:54:12;;;;;;;20.73;7.47;;;0.60;99.90;;;;;;5001272;28;20026;-73
2021/03/22 05:56:42;;;;;;;21.17;7.05;;;0.70;99.90;;;;;;5012965;28;20029;-71
2021/03/22 05:59:26;;;;;;;24.00;7.15;;;0.70;99.90;;;;;;5011757;28;20053;-70
2021/03/22 06:02:01;;;;;;;24.73;7.50;;;0.80;99.90;;;;;;5012727;28;20030;-70
2021/03/22 06:04:41;;;;;;;27.30;11.65;;;0.70;99.90;;;;;;5011745;28;20026;-69
2021/03/22 06:07:12;;;;;;;25.10;7.10;;;0.60;99.90;;;;;;5012871;28;20030;-70
2021/03/22 06:09:48;;;;;;;25.08;7.55;;;0.50;99.90;;;;;;5012630;28;20034;-70
2021/03/22 06:12:32;;;;;;;21.65;8.95;;;0.60;99.90;;;;;;5012429;28;20484;-70
2021/03/22 06:15:19;;;;;;;23.80;8.45;;;0.80;99.90;;;;;;5012862;28;20022;-70
2021/03/22 06:18:05;;;;;;;25.73;9.82;;;1.10;99.90;;;;;;5011409;28;20091;-70
2021/03/22 06:20:37;;;;;;;21.20;8.27;;;1.30;99.90;;;;;;5023915;28;20029;-70
2021/03/22 06:23:17;;;;;;;26.13;7.68;;;1.40;99.90;;;;;;5032082;28;20562;-70
2021/03/22 06:25:42;;;;;;;26.23;7.55;;;1.50;99.90;;;;;;5018153;28;20075;-70
2021/03/22 06:28:14;;;;;;;22.48;8.00;;;1.60;99.90;;;;;;5011231;28;20116;-70
2021/03/22 06:30:54;;;;;;;18.70;7.85;;;1.80;99.90;;;;;;5012681;28;20362;-70
2021/03/22 06:33:28;;;;;;;35.08;21.17;;;1.90;99.90;;;;;;5011354;28;20129;-72
2021/03/22 06:35:54;;;;;;;46.85;25.15;;;1.90;99.90;;;;;;5025895;28;20060;-70
2021/03/22 06:38:19;;;;;;;38.55;21.17;;;1.80;99.90;;;;;;5012077;28;20481;-70
2021/03/22 06:40:45;;;;;;;25.85;10.40;;;1.80;99.90;;;;;;5030281;28;20033;-70
2021/03/22 06:43:12;;;;;;;26.35;12.98;;;1.90;99.90;;;;;;5032158;28;20156;-70
2021/03/22 06:45:53;;;;;;;19.80;9.00;;;2.00;99.90;;;;;;5030679;28;20021;-70
2021/03/22 06:48:24;;;;;;;25.70;9.48;;;2.10;99.90;;;;;;5031282;28;20132;-70
2021/03/22 06:51:09;;;;;;;21.83;8.50;;;2.20;99.90;;;;;;5031734;28;20051;-70
2021/03/22 06:53:35;;;;;;;19.85;7.97;;;2.50;99.90;;;;;;5031637;28;20108;-70
2021/03/22 06:56:14;;;;;;;14.88;6.32;;;2.50;99.90;;;;;;5031774;28;20148;-70
2021/03/22 06:58:40;;;;;;;19.35;7.35;;;2.60;99.90;;;;;;5030609;28;20041;-70
2021/03/22 07:01:14;;;;;;;23.70;9.30;;;2.60;99.90;;;;;;5031602;28;20034;-70
2021/03/22 07:03:40;;;;;;;29.70;10.45;;;2.70;99.90;;;;;;5031701;28;20040;-69
2021/03/22 07:06:21;;;;;;;25.38;11.18;;;2.80;99.90;;;;;;5030259;28;20026;-71
2021/03/22 07:08:47;;;;;;;21.92;7.22;;;2.70;99.90;;;;;;5010487;28;20065;-72
2021/03/22 07:11:19;;;;;;;18.55;6.82;;;2.80;99.90;;;;;;5011724;28;20014;-71
2021/03/22 07:13:58;;;;;;;25.85;8.32;;;2.80;99.90;;;;;;5010839;28;20045;-72
2021/03/22 07:16:29;;;;;;;22.42;6.75;;;2.90;99.90;;;;;;5011831;28;20575;-71
2021/03/22 07:19:06;;;;;;;21.10;7.05;;;2.90;99.90;;;;;;5010485;28;20117;-71
2021/03/22 07:21:43;;;;;;;22.35;6.35;;;3.00;99.90;;;;;;4998690;28;20472;-70
2021/03/22 07:24:22;;;;;;;20.30;7.80;;;3.30;99.90;;;;;;5024703;28;20034;-71
2021/03/22 07:27:12;;;;;;;22.85;7.47;;;3.20;99.90;;;;;;5011279;28;20448;-69
2021/03/22 07:29:49;;;;;;;17.88;6.90;;;3.20;99.90;;;;;;4997095;28;20025;-71
2021/03/22 07:32:20;;;;;;;17.85;6.07;;;3.30;99.90;;;;;;5010089;28;20058;-71
2021/03/22 07:35:23;;;;;;;19.10;6.03;;;3.30;99.90;;;;;;5001341;28;20022;-71
2021/03/22 07:38:00;;;;;;;18.50;6.18;;;3.50;99.90;;;;;;4998632;28;20480;-71
2021/03/22 07:41:01;;;;;;;18.48;5.30;;;3.60;99.90;;;;;;5013100;28;20117;-71
2021/03/22 07:43:57;;;;;;;18.88;6.40;;;3.70;99.90;;;;;;5010178;28;20022;-71
2021/03/22 07:46:40;;;;;;;17.88;4.90;;;3.80;99.90;;;;;;5010414;28;20026;-71
2021/03/22 07:49:29;;;;;;;19.23;6.32;;;4.00;99.90;;;;;;5011523;28;20033;-70
2021/03/22 07:52:26;;;;;;;19.35;6.18;;;4.10;99.90;;;;;;5011322;28;20126;-71
2021/03/22 07:54:59;;;;;;;15.20;5.40;;;4.30;99.90;;;;;;5011157;28;20061;-71
2021/03/22 07:57:38;;;;;;;18.13;4.57;;;4.20;99.90;;;;;;5011686;28;20037;-71
2021/03/22 08:00:14;;;;;;;17.52;6.07;;;4.10;99.90;;;;;;5013167;28;20488;-71
2021/03/22 08:02:53;;;;;;;14.30;5.40;;;4.10;99.90;;;;;;5015070;28;20139;-71
2021/03/22 08:05:55;;;;;;;16.75;5.43;;;4.20;99.90;;;;;;5015194;28;20026;-71
2021/03/22 08:09:09;;;;;;;11.95;4.85;;;4.20;99.90;;;;;;5015028;28;20041;-71
2021/03/22 08:12:03;;;;;;;10.77;4.13;;;4.30;99.90;;;;;;5007154;28;20042;-71
2021/03/22 08:14:34;;;;;;;12.52;4.60;;;4.10;99.90;;;;;;5012077;28;20026;-71
2021/03/22 08:17:32;;;;;;;20.77;5.65;;;4.10;99.90;;;;;;5013949;28;20057;-71
2021/03/22 08:20:20;;;;;;;16.08;5.50;;;3.90;99.90;;;;;;5012264;28;20113;-71
2021/03/22 08:23:02;;;;;;;18.63;5.13;;;4.00;99.90;;;;;;5012489;28;20552;-71
2021/03/22 08:25:33;;;;;;;16.30;5.43;;;4.00;99.90;;;;;;5014346;28;20502;-71
2021/03/22 08:28:12;;;;;;;12.50;5.20;;;4.00;99.90;;;;;;5015214;28;20436;-71
2021/03/22 08:30:58;;;;;;;12.75;4.88;;;3.90;99.90;;;;;;5016658;28;20153;-71
2021/03/22 08:33:53;;;;;;;20.33;5.25;;;3.90;99.90;;;;;;5013036;28;20535;-73
2021/03/22 08:36:41;;;;;;;11.20;4.50;;;3.90;99.90;;;;;;5034244;28;20626;-70
2021/03/22 08:39:25;;;;;;;14.27;4.57;;;4.10;99.90;;;;;;5032760;28;20033;-71
2021/03/22 08:42:10;;;;;;;17.60;5.40;;;4.20;99.90;;;;;;5033912;28;20041;-71
2021/03/22 08:44:56;;;;;;;15.57;4.93;;;4.20;99.90;;;;;;5034087;28;20094;-71
2021/03/22 08:47:35;;;;;;;14.03;4.60;;;4.30;99.90;;;;;;5032945;28;20029;-71
2021/03/22 08:50:09;;;;;;;14.93;5.45;;;4.40;99.90;;;;;;5032444;28;20288;-71
2021/03/22 08:52:39;;;;;;;13.75;4.47;;;4.40;99.90;;;;;;5033359;28;20030;-71
2021/03/22 08:55:17;;;;;;;14.82;5.72;;;4.60;99.90;;;;;;5032499;28;20126;-71
2021/03/22 08:57:58;;;;;;;19.08;5.32;;;4.50;99.90;;;;;;5033798;28;20029;-71
2021/03/22 09:00:27;;;;;;;12.07;4.38;;;4.70;99.90;;;;;;5033445;28;20021;-71
2021/03/22 09:03:03;;;;;;;14.27;4.55;;;4.70;99.90;;;;;;5033329;28;20030;-71
2021/03/22 09:05:31;;;;;;;12.87;5.07;;;4.70;99.90;;;;;;5033681;28;20029;-71
2021/03/22 09:08:21;;;;;;;15.40;5.07;;;4.60;99.90;;;;;;5032167;28;20325;-70
2021/03/22 09:10:51;;;;;;;15.82;5.22;;;4.70;99.90;;;;;;5032635;28;20036;-71
2021/03/22 09:13:51;;;;;;;13.95;5.25;;;5.00;99.90;;;;;;5033277;28;20113;-71
2021/03/22 09:16:22;;;;;;;11.98;4.28;;;5.10;99.90;;;;;;5022387;28;20481;-71
2021/03/22 09:19:10;;;;;;;10.20;4.40;;;5.00;99.90;;;;;;5012292;28;20064;-71
2021/03/22 09:21:44;;;;;;;13.20;4.50;;;5.20;99.90;;;;;;5012100;28;20022;-71
2021/03/22 09:24:38;;;;;;;11.30;4.45;;;5.10;99.90;;;;;;5026519;28;20040;-71
2021/03/22 09:27:24;;;;;;;15.18;5.50;;;5.10;99.90;;;;;;5013414;28;20109;-71
2021/03/22 09:30:13;;;;;;;11.73;4.95;;;5.20;99.90;;;;;;5013244;28;20026;-71
2021/03/22 09:32:39;;;;;;;10.50;4.50;;;5.10;99.90;;;;;;5012587;28;20042;-71
2021/03/22 09:35:13;;;;;;;15.55;5.50;;;5.20;99.90;;;;;;5013176;28;20022;-71
2021/03/22 09:38:03;;;;;;;10.50;4.57;;;5.30;99.90;;;;;;5013323;28;20018;-71
2021/03/22 09:40:29;;;;;;;13.95;4.18;;;5.50;99.90;;;;;;5011967;28;20484;-71
2021/03/22 09:43:10;;;;;;;10.63;4.00;;;6.00;99.90;;;;;;5012942;28;20049;-71
2021/03/22 09:46:03;;;;;;;6.90;3.05;;;6.10;99.90;;;;;;5011886;28;20042;-69
2021/03/22 09:48:41;;;;;;;9.77;3.10;;;6.00;99.90;;;;;;5011714;28;20068;-69
2021/03/22 09:51:06;;;;;;;7.75;3.63;;;6.00;99.90;;;;;;5002869;28;20096;-69
2021/03/22 09:53:57;;;;;;;6.57;2.65;;;5.90;99.90;;;;;;5009517;28;20431;-69
2021/03/22 09:56:24;;;;;;;6.82;3.53;;;6.00;99.90;;;;;;5012854;28;20033;-71
2021/03/22 09:58:51;;;;;;;8.60;4.55;;;5.70;99.90;;;;;;5012860;28;20507;-71
2021/03/22 10:01:25;;;;;;;7.30;2.97;;;5.80;99.90;;;;;;5012550;28;20030;-71
2021/03/22 10:04:23;;;;;;;7.72;3.65;;;5.80;99.90;;;;;;5011442;28;20553;-70
2021/03/22 10:06:58;;;;;;;13.32;4.20;;;5.90;99.90;;;;;;5018218;28;20053;-71
2021/03/22 10:09:35;;;;;;;11.07;4.82;;;5.60;99.90;;;;;;5030857;28;20026;-69
2021/03/22 10:12:28;;;;;;;6.82;3.50;;;5.50;99.90;;;;;;5030872;28;20029;-71
2021/03/22 10:15:12;;;;;;;11.52;3.75;;;5.50;99.90;;;;;;5032284;28;20533;-71
2021/03/22 10:17:44;;;;;;;11.10;4.18;;;5.50;99.90;;;;;;5013249;28;20164;-69
2021/03/22 10:20:26;;;;;;;10.57;4.05;;;5.60;99.90;;;;;;5012401;28;20026;-71
2021/03/22 10:23:00;;;;;;;11.00;4.55;;;5.70;99.90;;;;;;5011441;28;20084;-71
2021/03/22 10:25:29;;;;;;;9.35;4.30;;;5.70;99.90;;;;;;5012426;28;20087;-71
2021/03/22 10:28:23;;;;;;;9.75;3.70;;;5.80;99.90;;;;;;5012111;28;20026;-72
2021/03/22 10:31:03;;;;;;;10.20;4.07;;;5.70;99.90;;;;;;5011750;28;20046;-70
2021/03/22 10:33:29;;;;;;;9.35;4.22;;;5.50;99.90;;;;;;5011168;28;20101;-71
2021/03/22 10:36:00;;;;;;;10.60;4.65;;;5.50;99.90;;;;;;5010905;28;20108;-70
2021/03/22 10:38:37;;;;;;;9.75;3.80;;;5.40;99.90;;;;;;5010975;28;20026;-71
2021/03/22 10:41:04;;;;;;;8.60;3.65;;;5.40;99.90;;;;;;4999039;28;20041;-71
2021/03/22 10:43:39;;;;;;;8.48;3.30;;;5.30;99.90;;;;;;5011926;28;20068;-71
2021/03/22 10:46:19;;;;;;;11.48;4.40;;;5.30;99.90;;;;;;5011821;28;20511;-71
2021/03/22 10:48:57;;;;;;;8.40;3.97;;;5.30;99.90;;;;;;5011332;28;20064;-71
2021/03/22 10:51:37;;;;;;;9.18;4.13;;;5.40;99.90;;;;;;5008415;28;20030;-71
2021/03/22 10:54:08;;;;;;;10.50;4.45;;;5.50;99.90;;;;;;5005678;28;20026;-71
2021/03/22 10:56:38;;;;;;;7.68;3.75;;;5.50;99.90;;;;;;5010791;28;20570;-71
2021/03/22 10:59:13;;;;;;;7.63;4.00;;;5.50;99.90;;;;;;5006038;28;20030;-71
2021/03/22 11:01:40;;;;;;;10.73;4.03;;;5.50;99.90;;;;;;5008659;28;20033;-72
2021/03/22 11:04:25;;;;;;;8.25;3.78;;;5.60;99.90;;;;;;5006430;28;20430;-71
2021/03/22 11:06:51;;;;;;;10.88;5.55;;;5.70;99.90;;;;;;5009382;28;20388;-72
2021/03/22 11:09:30;;;;;;;7.82;3.65;;;5.70;99.90;;;;;;5012853;28;20022;-72
2021/03/22 11:11:58;;;;;;;13.38;4.65;;;5.70;99.90;;;;;;5023980;28;20053;-72
2021/03/22 11:14:26;;;;;;;10.75;3.83;;;5.80;99.90;;;;;;5009392;28;20030;-72
2021/03/22 11:16:52;;;;;;;10.63;4.00;;;6.00;99.90;;;;;;5015334;28;20069;-71
2021/03/22 11:19:23;;;;;;;9.32;4.00;;;5.90;99.90;;;;;;5012486;28;20030;-71
2021/03/22 11:21:49;;;;;;;7.25;3.88;;;5.90;99.90;;;;;;5003819;28;20101;-71
2021/03/22 11:24:32;;;;;;;9.57;3.92;;;5.90;99.90;;;;;;5018628;28;20136;-71
2021/03/22 11:27:01;;;;;;;8.98;3.88;;;6.00;99.90;;;;;;5005235;28;20026;-71
2021/03/22 11:29:27;;;;;;;10.65;4.00;;;5.90;99.90;;;;;;5010074;28;20026;-71
2021/03/22 11:32:05;;;;;;;9.68;3.55;;;5.90;99.90;;;;;;5004148;28;20030;-71
2021/03/22 11:34:43;;;;;;;10.73;4.45;;;5.90;99.90;;;;;;5006934;28;20018;-71
2021/03/22 11:37:25;;;;;;;9.57;4.43;;;6.00;99.90;;;;;;5015328;28;20018;-71
2021/03/22 11:40:21;;;;;;;13.25;4.35;;;6.00;99.90;;;;;;5008166;28;20026;-71
2021/03/22 11:42:56;;;;;;;12.13;4.18;;;5.80;99.90;;;;;;5011278;28;20029;-71
2021/03/22 11:45:31;;;;;;;7.82;3.70;;;5.80;99.90;;;;;;5014108;28;20575;-71
2021/03/22 11:47:57;;;;;;;10.00;4.78;;;5.70;99.90;;;;;;5009926;28;20029;-71
2021/03/22 11:50:28;;;;;;;12.43;5.22;;;5.70;99.90;;;;;;5015299;28;20029;-71
2021/03/22 11:53:00;;;;;;;9.85;3.88;;;5.70;99.90;;;;;;5008746;28;20076;-71
2021/03/22 11:56:00;;;;;;;11.32;4.03;;;5.70;99.90;;;;;;5009561;28;20108;-71
2021/03/22 11:58:25;;;;;;;9.43;4.22;;;5.80;99.90;;;;;;5010057;28;20091;-71
2021/03/22 12:00:51;;;;;;;11.52;4.38;;;5.90;99.90;;;;;;5008585;28;20489;-71
2021/03/22 12:03:28;;;;;;;10.05;4.22;;;5.90;99.90;;;;;;5013776;28;20026;-71
2021/03/22 12:06:14;;;;;;;11.88;4.32;;;6.00;99.90;;;;;;5008029;28;20472;-70
2021/03/22 12:08:45;;;;;;;8.77;4.05;;;6.30;99.90;;;;;;5009769;28;20117;-71
2021/03/22 12:11:20;;;;;;;8.95;4.10;;;6.60;99.90;;;;;;5014467;28;20386;-71
2021/03/22 12:13:52;;;;;;;11.07;4.60;;;6.80;99.90;;;;;;5006803;28;20022;-71
2021/03/22 12:16:20;;;;;;;10.57;4.30;;;7.20;99.90;;;;;;5013381;28;20017;-71
2021/03/22 12:18:48;;;;;;;13.95;6.32;;;7.50;99.90;;;;;;5013652;28;20028;-71
2021/03/22 12:21:14;;;;;;;9.80;4.85;;;7.80;99.90;;;;;;5016251;28;20080;-71
2021/03/22 12:23:40;;;;;;;12.98;4.13;;;8.60;99.90;;;;;;5007868;28;20038;-71
2021/03/22 12:26:07;;;;;;;8.93;3.90;;;9.30;99.90;;;;;;5011786;28;20069;-69
2021/03/22 12:28:33;;;;;;;7.55;3.75;;;9.90;99.90;;;;;;5014387;28;20456;-71
2021/03/22 12:31:01;;;;;;;12.95;3.97;;;9.80;99.90;;;;;;5008190;28;20026;-69
2021/03/22 12:33:29;;;;;;;12.23;4.55;;;9.50;99.90;;;;;;5034054;28;20021;-69
2021/03/22 12:35:59;;;;;;;8.48;3.55;;;10.20;99.90;;;;;;5034120;28;20049;-69
2021/03/22 12:38:25;;;;;;;8.63;3.90;;;10.70;99.90;;;;;;5034171;28;20433;-69
2021/03/22 12:40:51;;;;;;;9.82;3.88;;;10.50;99.90;;;;;;5033914;28;20100;-69
2021/03/22 12:43:29;;;;;;;12.65;3.60;;;10.10;99.90;;;;;;5034163;28;20029;-68
2021/03/22 12:45:55;;;;;;;8.68;3.80;;;9.20;99.90;;;;;;5032954;28;20021;-71
2021/03/22 12:48:20;;;;;;;10.93;4.38;;;8.70;99.90;;;;;;5033839;28;20381;-72
2021/03/22 12:50:49;;;;;;;11.93;3.95;;;9.30;99.90;;;;;;5033643;28;20017;-71
2021/03/22 12:53:18;;;;;;;10.50;3.70;;;9.60;99.90;;;;;;5033787;28;20159;-71
2021/03/22 12:55:45;;;;;;;9.82;4.32;;;9.00;99.90;;;;;;5033841;28;20383;-71
2021/03/22 12:58:22;;;;;;;8.05;3.80;;;8.20;99.90;;;;;;5033691;28;20018;-71
2021/03/22 13:00:49;;;;;;;9.60;3.85;;;8.20;99.90;;;;;;5033512;28;20033;-71
2021/03/22 13:03:26;;;;;;;7.88;3.75;;;8.40;99.90;;;;;;5033644;28;20057;-71
2021/03/22 13:05:55;;;;;;;8.73;4.00;;;9.10;99.90;;;;;;5033716;28;20037;-71
2021/03/22 13:08:25;;;;;;;9.98;3.92;;;9.40;99.90;;;;;;5033547;28;20494;-71
2021/03/22 13:10:51;;;;;;;7.03;3.60;;;9.30;99.90;;;;;;5033138;28;20112;-71
2021/03/22 13:13:17;;;;;;;8.27;3.85;;;9.00;99.90;;;;;;5033277;28;20038;-71
2021/03/22 13:15:45;;;;;;;12.07;4.28;;;8.70;99.90;;;;;;5029990;28;20017;-71
2021/03/22 13:18:15;;;;;;;11.45;4.20;;;8.30;99.90;;;;;;5013611;28;20018;-71